Etusivu
METAR-TAF:

METAR-TAF

Lentoasemat :

Damaskoksen kansainvälinen lentoasema

Damaskos, Syyria

Leveyspiiri: 33-25N, Pituuspiiri: 036-31E, korkeus merenpinnasta: 608 m

Tämänhetkinen sää

Tämä raportti tehtiin 42 minuuttia sitten, kello 03.00 UTC
Tuuli 4 kn luoteesta
Lämpötila 8°C
Kosteus 61%
Ilmanpaine 1017 hPa
Näkyvyys 10 km tai enemmän
ei pilviä alle 1500 m:ssä eikä cumulonimbus-pilviä

METAR: OSDI 310300Z 31004KT CAVOK 08/01 Q1017

Aika: 06:42 (03:42 UTC)

Sääennuste

Tämä raportti tehtiin 16 tuntia ja 42 minuuttia sitten, kello 11.00 UTC
Ennuste voimassa 30. päivästä klo 12 UTC - 31. päivään klo 18 UTC
Tuuli 15 kn lounaasta
Näkyvyys 10 km tai enemmän
ei pilviä alle 1500 m:ssä eikä cumulonimbus-pilviä
Ajoittain
30. päivästä klo 12 UTC - 30. päivään klo 18 UTC
Tuuli 15 kn lännestä puuskistuen 25 kn:hen
Näkyvyys 10 km tai enemmän
Muutamia pilviä 3000 ft:n korkeudessa

TAF: OSDI 301100Z 3012/3118 22015KT CAVOK TEMPO 3012/3018 28015G25KT 9999 FEW030

Säähavainnot ja -ennusteet yli 4000 lentoasemalta (METAR- ja TAF-raportit).

Käytössä olevat sääasemat on merkitty karttaan keltaisilla ja punaisilla pisteillä.

Aseta hiiri pisteen päälle nähdäksesi sääaseman nimen.

Klikkaa sitten nähdäksesi säähavainnot ja -ennusteet.

Kartan vaihtaminen: klikkaa mustalla rastilla varustettuja vihreitä pisteitä, niin voit zoomata sisään; viivalla varustettua vihreää pistettä, niin voit zoomata ulos tai vihreitä nuolia, niin pääset viereisille kartoille.


METAR-TAF: